createdAt,value
2019-05-22T00:01:07.097Z,15.60
2019-05-22T00:03:24.223Z,15.60
2019-05-22T00:05:29.821Z,15.70
2019-05-22T00:07:32.802Z,15.70
2019-05-22T00:09:37.394Z,15.70
2019-05-22T00:11:40.274Z,15.70
2019-05-22T00:13:44.774Z,15.70
2019-05-22T00:15:49.569Z,15.70
2019-05-22T00:17:54.242Z,15.80
2019-05-22T00:19:58.112Z,15.80
2019-05-22T00:22:02.599Z,15.80
2019-05-22T00:24:08.328Z,15.80
2019-05-22T00:26:11.488Z,15.70
2019-05-22T00:28:15.417Z,15.70
2019-05-22T00:30:20.529Z,15.70
2019-05-22T00:32:24.497Z,15.70
2019-05-22T00:34:29.036Z,15.70
2019-05-22T00:36:32.279Z,15.70
2019-05-22T00:38:36.791Z,15.70
2019-05-22T00:40:41.313Z,15.70
2019-05-22T00:42:45.813Z,15.70
2019-05-22T00:44:48.677Z,15.80
2019-05-22T00:46:53.152Z,15.80
2019-05-22T00:48:56.217Z,15.80
2019-05-22T00:51:00.864Z,15.80
2019-05-22T00:53:22.222Z,15.80
2019-05-22T00:55:28.199Z,15.70
2019-05-22T00:57:42.428Z,15.70
2019-05-22T00:59:49.705Z,15.70
2019-05-22T01:01:57.654Z,15.70
2019-05-22T01:04:02.161Z,15.80
2019-05-22T01:06:05.802Z,15.80
2019-05-22T01:08:10.336Z,15.80
2019-05-22T01:10:14.839Z,15.80
2019-05-22T01:12:27.040Z,15.80
2019-05-22T01:14:42.692Z,15.80
2019-05-22T01:16:36.568Z,15.80
2019-05-22T01:18:40.141Z,15.80
2019-05-22T01:20:43.022Z,15.80
2019-05-22T01:22:47.638Z,15.80
2019-05-22T01:24:53.438Z,15.70
2019-05-22T01:26:57.156Z,15.80
2019-05-22T01:29:01.200Z,15.70
2019-05-22T01:31:08.672Z,15.80
2019-05-22T01:33:16.571Z,15.80
2019-05-22T01:35:21.100Z,15.80
2019-05-22T01:37:26.816Z,15.80
2019-05-22T01:39:35.636Z,15.80
2019-05-22T01:41:40.733Z,15.80
2019-05-22T01:43:43.687Z,15.80
2019-05-22T01:45:54.857Z,15.90
2019-05-22T01:48:03.306Z,15.90
2019-05-22T01:50:06.428Z,15.80
2019-05-22T01:52:11.820Z,15.80
2019-05-22T01:54:15.425Z,15.80
2019-05-22T01:56:20.161Z,15.80
2019-05-22T01:58:24.726Z,15.80
2019-05-22T02:00:28.153Z,15.80
2019-05-22T02:02:32.872Z,15.80
2019-05-22T02:04:35.825Z,15.80
2019-05-22T02:06:39.363Z,15.80
2019-05-22T02:08:45.369Z,15.80
2019-05-22T02:10:49.085Z,15.80
2019-05-22T02:12:54.824Z,15.80
2019-05-22T02:14:57.956Z,15.80
2019-05-22T02:17:01.388Z,15.80
2019-05-22T02:19:05.057Z,15.80
2019-05-22T02:21:09.409Z,15.80
2019-05-22T02:23:13.071Z,15.80
2019-05-22T02:25:16.416Z,15.90
2019-05-22T02:27:19.854Z,15.80
2019-05-22T02:29:23.995Z,15.80
2019-05-22T02:31:28.996Z,15.90
2019-05-22T02:33:32.228Z,15.90
2019-05-22T02:35:36.629Z,15.90
2019-05-22T02:37:41.156Z,15.90
2019-05-22T02:39:44.693Z,15.90
2019-05-22T02:41:50.320Z,15.90
2019-05-22T02:43:53.181Z,15.90
2019-05-22T02:45:57.817Z,15.90
2019-05-22T02:48:02.070Z,15.90
2019-05-22T02:50:05.814Z,15.90
2019-05-22T02:52:10.145Z,15.90
2019-05-22T02:54:13.116Z,16.00
2019-05-22T02:56:16.006Z,15.90
2019-05-22T02:58:20.163Z,15.90
2019-05-22T03:00:25.967Z,15.90
2019-05-22T03:02:29.995Z,16.00
2019-05-22T03:04:50.983Z,16.00
2019-05-22T03:06:55.141Z,16.00
2019-05-22T03:09:00.877Z,16.00
2019-05-22T03:11:04.012Z,16.00
2019-05-22T03:13:08.436Z,16.00
2019-05-22T03:15:13.140Z,16.00
2019-05-22T03:17:27.623Z,16.00
2019-05-22T03:19:39.160Z,16.10
2019-05-22T03:21:42.032Z,16.00
2019-05-22T03:23:44.964Z,16.00
2019-05-22T03:25:47.837Z,15.90
2019-05-22T03:27:51.895Z,15.90
2019-05-22T03:29:55.241Z,15.90
2019-05-22T03:31:58.564Z,15.90
2019-05-22T03:34:01.657Z,16.00
2019-05-22T03:36:06.328Z,15.90
2019-05-22T03:38:09.644Z,15.90
2019-05-22T03:40:13.134Z,15.90
2019-05-22T03:42:17.007Z,15.90
2019-05-22T03:44:19.847Z,15.90
2019-05-22T03:46:25.187Z,15.90
2019-05-22T03:48:30.176Z,16.00
2019-05-22T03:50:33.839Z,16.00
2019-05-22T03:52:36.822Z,16.00
2019-05-22T03:54:40.096Z,16.00
2019-05-22T03:56:43.928Z,15.90
2019-05-22T03:58:47.073Z,15.90
2019-05-22T04:00:51.723Z,15.90
2019-05-22T04:02:54.887Z,15.90
2019-05-22T04:04:58.338Z,15.90
2019-05-22T04:07:01.796Z,16.00
2019-05-22T04:09:10.550Z,16.00
2019-05-22T04:11:13.433Z,15.90
2019-05-22T04:13:18.281Z,15.90
2019-05-22T04:15:22.909Z,16.00
2019-05-22T04:17:26.643Z,15.90
2019-05-22T04:19:47.600Z,15.90
2019-05-22T04:21:34.336Z,16.00
2019-05-22T04:23:38.093Z,16.00
2019-05-22T04:25:41.127Z,16.10
2019-05-22T04:27:44.018Z,16.00
2019-05-22T04:29:47.241Z,16.00
2019-05-22T04:31:58.004Z,16.10
2019-05-22T04:34:01.363Z,16.10
2019-05-22T04:36:04.485Z,16.10
2019-05-22T04:38:07.725Z,16.10
2019-05-22T04:40:24.418Z,16.20
2019-05-22T04:42:28.636Z,16.20
2019-05-22T04:44:31.602Z,16.20
2019-05-22T04:46:34.523Z,16.20
2019-05-22T04:48:37.851Z,16.20
2019-05-22T04:50:40.817Z,16.30
2019-05-22T04:52:44.349Z,16.30
2019-05-22T04:54:47.333Z,16.30
2019-05-22T04:56:51.478Z,16.30
2019-05-22T04:58:55.176Z,16.30
2019-05-22T05:00:58.036Z,16.30
2019-05-22T05:03:01.102Z,16.30
2019-05-22T05:05:05.639Z,16.30
2019-05-22T05:07:08.769Z,16.20
2019-05-22T05:09:13.452Z,16.20
2019-05-22T05:11:17.477Z,16.20
2019-05-22T05:13:20.613Z,16.10
2019-05-22T05:15:23.508Z,16.00
2019-05-22T05:17:26.432Z,16.00
2019-05-22T05:19:29.369Z,15.90
2019-05-22T05:21:32.423Z,15.90
2019-05-22T05:23:35.501Z,15.80
2019-05-22T05:25:38.867Z,15.70
2019-05-22T05:27:42.356Z,15.70
2019-05-22T05:29:45.166Z,15.70
2019-05-22T05:31:48.514Z,15.70
2019-05-22T05:33:53.134Z,15.70
2019-05-22T05:35:57.552Z,15.70
2019-05-22T05:38:01.981Z,15.70
2019-05-22T05:40:08.103Z,15.60
2019-05-22T05:42:11.516Z,15.60
2019-05-22T05:44:14.450Z,15.60
2019-05-22T05:46:17.300Z,15.60
2019-05-22T05:48:21.192Z,15.60
2019-05-22T05:50:38.238Z,15.50
2019-05-22T05:52:30.790Z,15.50
2019-05-22T05:54:35.200Z,15.50
2019-05-22T05:56:39.231Z,15.50
2019-05-22T05:58:42.517Z,15.40
2019-05-22T06:00:47.021Z,15.40
2019-05-22T06:02:56.515Z,15.30
2019-05-22T06:04:56.256Z,15.30
2019-05-22T06:07:02.061Z,15.30
2019-05-22T06:09:08.223Z,15.40
2019-05-22T06:11:28.996Z,15.40
2019-05-22T06:13:32.270Z,15.30
2019-05-22T06:15:47.132Z,15.30
2019-05-22T06:18:04.224Z,15.30
2019-05-22T06:20:08.929Z,15.30
2019-05-22T06:22:14.446Z,15.30
2019-05-22T06:24:23.365Z,15.30
2019-05-22T06:26:28.403Z,15.30
2019-05-22T06:28:32.788Z,15.30
2019-05-22T06:30:39.896Z,15.20
2019-05-22T06:32:47.705Z,15.20
2019-05-22T06:34:50.804Z,15.20
2019-05-22T06:36:55.163Z,15.20
2019-05-22T06:38:59.843Z,15.20
2019-05-22T06:41:04.366Z,15.20
2019-05-22T06:43:20.883Z,15.20
2019-05-22T06:45:24.005Z,15.10
2019-05-22T06:47:28.539Z,15.10
2019-05-22T06:49:32.882Z,15.10
2019-05-22T06:51:35.986Z,15.10
2019-05-22T06:53:38.919Z,15.10
2019-05-22T06:55:41.953Z,15.10
2019-05-22T06:57:44.910Z,15.10
2019-05-22T06:59:49.513Z,15.10
2019-05-22T07:02:00.799Z,15.10
2019-05-22T07:03:57.084Z,15.00
2019-05-22T07:06:00.932Z,15.00
2019-05-22T07:08:04.289Z,15.10
2019-05-22T07:10:08.428Z,15.10
2019-05-22T07:12:13.041Z,15.10
2019-05-22T07:14:17.376Z,15.20
2019-05-22T07:16:20.232Z,15.20
2019-05-22T07:18:24.123Z,15.20
2019-05-22T07:20:28.578Z,15.20
2019-05-22T07:22:32.048Z,15.20
2019-05-22T07:24:35.582Z,15.20
2019-05-22T07:26:40.117Z,15.20
2019-05-22T07:28:43.046Z,15.20
2019-05-22T07:30:47.139Z,15.20
2019-05-22T07:32:50.105Z,15.20
2019-05-22T07:34:53.023Z,15.20
2019-05-22T07:36:55.876Z,15.10
2019-05-22T07:38:59.192Z,15.20
2019-05-22T07:41:02.204Z,15.20
2019-05-22T07:43:05.338Z,15.30
2019-05-22T07:45:08.726Z,15.20
2019-05-22T07:47:12.554Z,15.20
2019-05-22T07:49:15.435Z,15.20
2019-05-22T07:51:18.453Z,15.20
2019-05-22T07:53:22.667Z,15.20
2019-05-22T07:55:26.701Z,15.30
2019-05-22T07:57:30.541Z,15.30
2019-05-22T07:59:33.618Z,15.30
2019-05-22T08:01:36.891Z,15.30
2019-05-22T08:03:40.545Z,15.30
2019-05-22T08:05:45.289Z,15.40
2019-05-22T08:07:50.154Z,15.40
2019-05-22T08:09:54.440Z,15.30
2019-05-22T08:11:58.231Z,15.40
2019-05-22T08:14:01.129Z,15.30
2019-05-22T08:16:04.090Z,15.30
2019-05-22T08:18:07.653Z,15.30
2019-05-22T08:20:11.353Z,15.30
2019-05-22T08:22:14.766Z,15.30
2019-05-22T08:24:18.065Z,15.30
2019-05-22T08:26:23.063Z,15.40
2019-05-22T08:28:26.703Z,15.40
2019-05-22T08:30:29.603Z,15.50
2019-05-22T08:32:33.930Z,15.50
2019-05-22T08:34:37.287Z,15.60
2019-05-22T08:36:40.234Z,15.60
2019-05-22T08:38:44.490Z,15.60
2019-05-22T08:40:47.633Z,15.60
2019-05-22T08:42:50.597Z,15.70
2019-05-22T08:44:54.087Z,15.70
2019-05-22T08:46:57.381Z,15.80
2019-05-22T08:49:00.236Z,15.90
2019-05-22T08:51:04.702Z,16.10
2019-05-22T08:53:07.938Z,16.10
2019-05-22T08:55:11.768Z,16.20
2019-05-22T08:57:14.827Z,16.20
2019-05-22T08:59:19.904Z,16.20
2019-05-22T09:01:23.913Z,16.10
2019-05-22T09:03:26.967Z,16.10
2019-05-22T09:05:30.428Z,16.10
2019-05-22T09:07:33.652Z,16.20
2019-05-22T09:09:36.613Z,16.20
2019-05-22T09:11:39.562Z,16.40
2019-05-22T09:13:42.888Z,16.50
2019-05-22T09:15:47.825Z,16.80
2019-05-22T09:17:50.894Z,16.80
2019-05-22T09:19:53.751Z,16.70
2019-05-22T09:21:57.192Z,16.60
2019-05-22T09:24:00.621Z,16.50
2019-05-22T09:26:03.721Z,16.40
2019-05-22T09:28:06.664Z,16.40
2019-05-22T09:30:09.979Z,16.50
2019-05-22T09:32:12.909Z,16.40
2019-05-22T09:34:16.254Z,16.50
2019-05-22T09:36:20.184Z,16.60
2019-05-22T09:38:23.086Z,16.60
2019-05-22T09:40:26.122Z,16.60
2019-05-22T09:42:29.463Z,16.60
2019-05-22T09:44:32.371Z,16.60
2019-05-22T09:46:35.268Z,16.60
2019-05-22T09:48:38.563Z,16.80
2019-05-22T09:50:41.902Z,16.90
2019-05-22T09:52:56.854Z,16.90
2019-05-22T09:54:51.523Z,16.80
2019-05-22T09:56:54.876Z,16.60
2019-05-22T09:58:57.843Z,16.60
2019-05-22T10:01:00.960Z,16.60
2019-05-22T10:03:05.744Z,16.70
2019-05-22T10:05:10.362Z,16.70
2019-05-22T10:07:13.356Z,16.60
2019-05-22T10:09:16.412Z,16.70
2019-05-22T10:11:20.672Z,16.70
2019-05-22T10:13:24.466Z,16.60
2019-05-22T10:15:28.392Z,16.60
2019-05-22T10:17:32.026Z,16.60
2019-05-22T10:19:34.929Z,16.50
2019-05-22T10:21:38.161Z,16.50
2019-05-22T10:23:41.523Z,16.40
2019-05-22T10:25:44.589Z,16.40
2019-05-22T10:27:47.734Z,16.40
2019-05-22T10:29:50.819Z,16.40
2019-05-22T10:31:53.849Z,16.30
2019-05-22T10:33:56.758Z,16.30
2019-05-22T10:35:59.632Z,16.30
2019-05-22T10:38:02.694Z,16.30
2019-05-22T10:40:06.505Z,16.30
2019-05-22T10:42:09.428Z,16.30
2019-05-22T10:44:12.459Z,16.20
2019-05-22T10:46:15.630Z,16.20
2019-05-22T10:48:18.497Z,16.30
2019-05-22T10:50:21.593Z,16.30
2019-05-22T10:52:26.034Z,16.40
2019-05-22T10:54:29.069Z,16.40
2019-05-22T10:56:31.955Z,16.40
2019-05-22T10:58:35.214Z,16.40
2019-05-22T11:00:38.324Z,16.40
2019-05-22T11:02:41.592Z,16.40
2019-05-22T11:04:44.729Z,16.40
2019-05-22T11:06:47.789Z,16.30
2019-05-22T11:08:51.215Z,16.30
2019-05-22T11:10:54.753Z,16.40
2019-05-22T11:12:57.808Z,16.40
2019-05-22T11:15:00.817Z,16.40
2019-05-22T11:17:03.782Z,16.40
2019-05-22T11:19:07.011Z,16.30
2019-05-22T11:21:10.390Z,16.40
2019-05-22T11:23:13.416Z,16.40
2019-05-22T11:25:18.150Z,16.40
2019-05-22T11:27:21.122Z,16.50
2019-05-22T11:29:24.105Z,16.60
2019-05-22T11:31:27.551Z,16.70
2019-05-22T11:33:34.046Z,16.70
2019-05-22T11:35:35.148Z,16.80
2019-05-22T11:37:38.772Z,16.90
2019-05-22T11:39:44.840Z,16.80
2019-05-22T11:41:46.520Z,16.80
2019-05-22T11:43:49.414Z,16.80
2019-05-22T11:45:52.362Z,16.90
2019-05-22T11:47:55.246Z,16.90
2019-05-22T11:49:58.510Z,16.90
2019-05-22T11:52:02.165Z,16.80
2019-05-22T11:54:09.165Z,16.70
2019-05-22T11:56:10.154Z,16.60
2019-05-22T11:58:13.493Z,16.60
2019-05-22T12:00:17.297Z,16.60
2019-05-22T12:02:20.465Z,16.60
2019-05-22T12:04:23.393Z,16.60
2019-05-22T12:06:26.717Z,16.50
2019-05-22T12:08:29.585Z,16.40
2019-05-22T12:10:32.620Z,16.40
2019-05-22T12:12:36.100Z,16.40
2019-05-22T12:14:39.099Z,16.40
2019-05-22T12:16:42.725Z,16.40
2019-05-22T12:18:46.450Z,16.50
2019-05-22T12:20:49.397Z,16.40
2019-05-22T12:22:52.361Z,16.40
2019-05-22T12:24:55.258Z,16.30
2019-05-22T12:26:58.283Z,16.10
2019-05-22T12:29:01.133Z,16.00
2019-05-22T12:31:04.966Z,16.00
2019-05-22T12:33:13.357Z,15.90
2019-05-22T12:35:14.177Z,15.80
2019-05-22T12:37:17.212Z,15.80
2019-05-22T12:39:22.408Z,15.80
2019-05-22T12:41:25.840Z,15.70
2019-05-22T12:43:30.667Z,15.60
2019-05-22T12:45:34.365Z,15.50
2019-05-22T12:47:37.754Z,15.50
2019-05-22T12:49:40.881Z,15.50
2019-05-22T12:51:44.184Z,15.50
2019-05-22T12:53:47.595Z,15.40
2019-05-22T12:55:50.897Z,15.50
2019-05-22T12:57:54.324Z,15.40
2019-05-22T13:00:02.043Z,15.40
2019-05-22T13:02:03.732Z,15.40
2019-05-22T13:04:07.030Z,15.30
2019-05-22T13:06:10.940Z,15.30
2019-05-22T13:08:14.205Z,15.20
2019-05-22T13:10:18.329Z,15.20
2019-05-22T13:12:21.931Z,15.00
2019-05-22T13:14:24.902Z,15.00
2019-05-22T13:16:29.531Z,15.10
2019-05-22T13:18:32.797Z,15.10
2019-05-22T13:20:43.428Z,15.20
2019-05-22T13:22:43.646Z,15.20
2019-05-22T13:24:47.196Z,15.30
2019-05-22T13:26:50.963Z,15.30
2019-05-22T13:28:54.185Z,15.30
2019-05-22T13:30:57.107Z,15.40
2019-05-22T13:33:00.337Z,15.30
2019-05-22T13:35:04.948Z,15.40
2019-05-22T13:37:08.391Z,15.20
2019-05-22T13:39:11.833Z,15.20
2019-05-22T13:41:15.618Z,15.20
2019-05-22T13:43:18.723Z,15.10
2019-05-22T13:45:29.259Z,15.20
2019-05-22T13:47:26.761Z,15.10
2019-05-22T13:49:31.494Z,14.90
2019-05-22T13:51:34.371Z,14.90
2019-05-22T13:53:37.431Z,14.90
2019-05-22T13:55:41.174Z,14.80
2019-05-22T13:57:44.301Z,14.80
2019-05-22T13:59:47.179Z,14.80
2019-05-22T14:01:50.030Z,14.80
2019-05-22T14:03:54.081Z,14.70
2019-05-22T14:05:57.842Z,14.60
2019-05-22T14:08:01.545Z,14.50
2019-05-22T14:10:05.336Z,14.50
2019-05-22T14:12:08.765Z,14.50
2019-05-22T14:14:11.923Z,14.40
2019-05-22T14:16:14.908Z,14.30
2019-05-22T14:18:17.933Z,14.40
2019-05-22T14:20:21.353Z,14.40
2019-05-22T14:22:24.557Z,14.40
2019-05-22T14:24:27.481Z,14.40
2019-05-22T14:26:30.386Z,14.30
2019-05-22T14:28:34.134Z,14.30
2019-05-22T14:30:37.358Z,14.30
2019-05-22T14:32:40.316Z,14.30
2019-05-22T14:34:44.243Z,14.30
2019-05-22T14:36:47.629Z,14.20
2019-05-22T14:38:51.286Z,14.20
2019-05-22T14:40:54.140Z,14.20
2019-05-22T14:42:57.029Z,14.20
2019-05-22T14:45:00.056Z,14.20
2019-05-22T14:47:13.221Z,14.20
2019-05-22T14:49:07.353Z,14.20
2019-05-22T14:51:10.357Z,14.20
2019-05-22T14:53:14.200Z,14.20
2019-05-22T14:55:17.069Z,14.20
2019-05-22T14:57:20.792Z,14.20
2019-05-22T14:59:23.822Z,14.20
2019-05-22T15:01:27.523Z,14.20
2019-05-22T15:03:31.048Z,14.20
2019-05-22T15:05:34.394Z,14.20
2019-05-22T15:07:37.446Z,14.20
2019-05-22T15:09:40.309Z,14.20
2019-05-22T15:11:43.469Z,14.30
2019-05-22T15:13:46.601Z,14.00
2019-05-22T15:15:49.510Z,14.10
2019-05-22T15:17:52.389Z,13.90
2019-05-22T15:19:55.285Z,13.90
2019-05-22T15:21:58.306Z,13.90
2019-05-22T15:24:01.691Z,13.80
2019-05-22T15:26:04.655Z,13.80
2019-05-22T15:28:07.715Z,13.80
2019-05-22T15:30:11.082Z,13.70
2019-05-22T15:32:15.929Z,13.70
2019-05-22T15:34:19.859Z,13.70
2019-05-22T15:36:24.612Z,13.60
2019-05-22T15:38:28.053Z,13.70
2019-05-22T15:40:31.376Z,13.60
2019-05-22T15:42:35.920Z,13.70
2019-05-22T15:44:39.975Z,13.60
2019-05-22T15:46:43.933Z,13.70
2019-05-22T15:48:47.394Z,13.70
2019-05-22T15:50:51.350Z,13.70
2019-05-22T15:52:55.384Z,13.70
2019-05-22T15:54:58.217Z,13.70
2019-05-22T15:57:01.274Z,13.70
2019-05-22T15:59:06.590Z,13.60
2019-05-22T16:01:11.131Z,13.50
2019-05-22T16:03:17.440Z,13.60
2019-05-22T16:05:20.703Z,13.60
2019-05-22T16:07:23.848Z,13.50
2019-05-22T16:09:27.082Z,13.50
2019-05-22T16:11:31.421Z,13.40
2019-05-22T16:13:35.355Z,13.40
2019-05-22T16:15:38.745Z,13.30
2019-05-22T16:17:42.470Z,13.30
2019-05-22T16:19:47.734Z,13.40
2019-05-22T16:21:51.200Z,13.30
2019-05-22T16:23:54.859Z,13.30
2019-05-22T16:25:58.016Z,13.30
2019-05-22T16:28:01.914Z,13.30
2019-05-22T16:30:06.541Z,13.30
2019-05-22T16:32:10.174Z,13.30
2019-05-22T16:34:14.254Z,13.30
2019-05-22T16:36:18.664Z,13.30
2019-05-22T16:38:23.076Z,13.20
2019-05-22T16:40:27.651Z,13.20
2019-05-22T16:42:32.453Z,13.30
2019-05-22T16:44:35.816Z,13.30
2019-05-22T16:46:40.461Z,13.20
2019-05-22T16:48:43.726Z,13.20
2019-05-22T16:50:46.970Z,13.20
2019-05-22T16:52:50.168Z,13.20
2019-05-22T16:54:54.109Z,13.20
2019-05-22T16:56:57.766Z,13.20
2019-05-22T16:59:02.274Z,13.20
2019-05-22T17:01:06.406Z,13.20
2019-05-22T17:03:09.729Z,13.20
2019-05-22T17:05:13.788Z,13.20
2019-05-22T17:07:17.451Z,13.20
2019-05-22T17:09:21.265Z,13.30
2019-05-22T17:11:24.436Z,13.30
2019-05-22T17:13:28.566Z,13.30
2019-05-22T17:15:32.195Z,13.20
2019-05-22T17:17:35.286Z,13.20
2019-05-22T17:19:38.633Z,13.30
2019-05-22T17:21:41.489Z,13.20
2019-05-22T17:23:44.635Z,13.20
2019-05-22T17:25:47.585Z,13.20
2019-05-22T17:27:50.690Z,13.20
2019-05-22T17:29:54.036Z,13.20
2019-05-22T17:31:56.907Z,13.20
2019-05-22T17:34:00.270Z,13.20
2019-05-22T17:36:05.681Z,13.20
2019-05-22T17:38:08.616Z,13.30
2019-05-22T17:40:13.048Z,13.20
2019-05-22T17:42:18.081Z,13.20
2019-05-22T17:44:21.536Z,13.20
2019-05-22T17:46:24.460Z,13.30
2019-05-22T17:48:27.496Z,13.20
2019-05-22T17:50:30.489Z,13.20
2019-05-22T17:52:34.275Z,13.10
2019-05-22T17:54:37.165Z,13.20
2019-05-22T17:56:40.498Z,13.20
2019-05-22T17:58:43.693Z,13.20
2019-05-22T18:00:48.228Z,13.20
2019-05-22T18:02:51.417Z,13.20
2019-05-22T18:04:54.462Z,13.20
2019-05-22T18:06:57.688Z,13.30
2019-05-22T18:09:01.302Z,13.30
2019-05-22T18:11:06.528Z,13.30
2019-05-22T18:13:11.144Z,13.30
2019-05-22T18:15:15.780Z,13.20
2019-05-22T18:17:18.690Z,13.20
2019-05-22T18:19:21.553Z,13.20
2019-05-22T18:21:24.422Z,13.20
2019-05-22T18:23:27.699Z,13.20
2019-05-22T18:25:30.622Z,13.20
2019-05-22T18:27:33.593Z,13.20
2019-05-22T18:29:36.486Z,13.20
2019-05-22T18:31:39.509Z,13.20
2019-05-22T18:33:42.379Z,13.20
2019-05-22T18:35:45.445Z,13.20
2019-05-22T18:37:48.385Z,13.20
2019-05-22T18:39:51.740Z,13.20
2019-05-22T18:41:54.609Z,13.10
2019-05-22T18:43:58.453Z,13.20
2019-05-22T18:46:01.386Z,13.10
2019-05-22T18:48:04.374Z,13.10
2019-05-22T18:50:07.513Z,13.10
2019-05-22T18:52:10.365Z,13.10
2019-05-22T18:54:13.275Z,13.10
2019-05-22T18:56:16.401Z,13.10
2019-05-22T18:58:19.489Z,13.00
2019-05-22T19:00:24.696Z,13.00
2019-05-22T19:02:27.716Z,13.00
2019-05-22T19:04:30.705Z,13.00
2019-05-22T19:06:33.718Z,13.10
2019-05-22T19:10:20.514Z,13.10
2019-05-22T19:12:24.711Z,13.10
2019-05-22T19:14:28.705Z,13.10
2019-05-22T19:16:32.922Z,13.10
2019-05-22T19:18:36.870Z,13.10
2019-05-22T19:20:43.806Z,13.10
2019-05-22T19:22:59.529Z,13.00
2019-05-22T19:24:53.160Z,12.90
2019-05-22T19:26:56.877Z,12.90
2019-05-22T19:29:01.189Z,12.80
2019-05-22T19:31:05.224Z,12.70
2019-05-22T19:33:09.103Z,12.70
2019-05-22T19:35:14.014Z,12.60
2019-05-22T19:37:17.958Z,12.60
2019-05-22T19:39:21.782Z,12.60
2019-05-22T19:41:25.693Z,12.50
2019-05-22T19:43:29.521Z,12.60
2019-05-22T19:45:33.582Z,12.50
2019-05-22T19:47:38.074Z,12.50
2019-05-22T19:49:43.832Z,12.60
2019-05-22T19:51:50.214Z,12.50
2019-05-22T19:53:54.607Z,12.50
2019-05-22T19:56:01.546Z,12.60
2019-05-22T19:58:05.643Z,12.50
2019-05-22T20:00:11.403Z,12.50
2019-05-22T20:02:15.218Z,12.50
2019-05-22T20:04:19.509Z,12.40
2019-05-22T20:06:23.811Z,12.50
2019-05-22T20:08:27.940Z,12.40
2019-05-22T20:10:32.218Z,12.40
2019-05-22T20:12:36.604Z,12.40
2019-05-22T20:14:41.655Z,12.40
2019-05-22T20:16:45.575Z,12.40
2019-05-22T20:18:49.467Z,12.40
2019-05-22T20:20:53.567Z,12.40
2019-05-22T20:22:57.319Z,12.30
2019-05-22T20:25:01.255Z,12.40
2019-05-22T20:27:09.339Z,12.30
2019-05-22T20:29:13.288Z,12.30
2019-05-22T20:31:17.626Z,12.30
2019-05-22T20:33:21.479Z,12.30
2019-05-22T20:35:26.573Z,12.30
2019-05-22T20:37:32.490Z,12.30
2019-05-22T20:39:37.291Z,12.40
2019-05-22T20:41:41.340Z,12.30
2019-05-22T20:43:46.518Z,12.30
2019-05-22T20:45:51.398Z,12.30
2019-05-22T20:48:11.926Z,12.30
2019-05-22T20:50:17.197Z,12.30
2019-05-22T20:52:21.349Z,12.30
2019-05-22T20:54:26.840Z,12.30
2019-05-22T20:56:31.874Z,12.30
2019-05-22T20:58:36.561Z,12.30
2019-05-22T21:00:41.792Z,12.30
2019-05-22T21:03:12.463Z,12.30
2019-05-22T21:05:20.287Z,12.30
2019-05-22T21:07:33.310Z,12.20
2019-05-22T21:09:37.377Z,12.20
2019-05-22T21:11:41.909Z,12.20
2019-05-22T21:13:45.947Z,12.30
2019-05-22T21:15:51.384Z,12.20
2019-05-22T21:17:56.215Z,12.20
2019-05-22T21:20:02.090Z,12.30
2019-05-22T21:22:06.656Z,12.30
2019-05-22T21:24:12.370Z,12.30
2019-05-22T21:26:18.355Z,12.20
2019-05-22T21:28:22.630Z,12.20
2019-05-22T21:30:26.735Z,12.20
2019-05-22T21:32:30.990Z,12.20
2019-05-22T21:34:34.738Z,12.20
2019-05-22T21:36:38.893Z,12.10
2019-05-22T21:38:42.805Z,12.20
2019-05-22T21:40:47.690Z,12.10
2019-05-22T21:42:53.521Z,12.10
2019-05-22T21:44:57.378Z,12.10
2019-05-22T21:47:04.677Z,12.10
2019-05-22T21:49:09.570Z,12.10
2019-05-22T21:51:13.287Z,12.10
2019-05-22T21:53:18.194Z,12.10
2019-05-22T21:55:24.210Z,12.10
2019-05-22T21:57:28.290Z,12.10
2019-05-22T21:59:32.790Z,12.10
2019-05-22T22:01:38.354Z,12.20
2019-05-22T22:03:50.198Z,12.10
2019-05-22T22:05:55.067Z,12.10
2019-05-22T22:07:59.990Z,12.10
2019-05-22T22:10:05.875Z,12.20
2019-05-22T22:12:11.481Z,12.10
2019-05-22T22:14:17.752Z,12.20
2019-05-22T22:16:22.834Z,12.20
2019-05-22T22:18:26.761Z,12.20
2019-05-22T22:20:30.736Z,12.20
2019-05-22T22:22:35.547Z,12.10
2019-05-22T22:24:39.978Z,12.10
2019-05-22T22:26:43.862Z,12.10
2019-05-22T22:28:48.449Z,12.10
2019-05-22T22:30:53.848Z,12.00
2019-05-22T22:33:01.577Z,12.10
2019-05-22T22:35:08.948Z,12.00
2019-05-22T22:37:14.443Z,12.00
2019-05-22T22:39:20.119Z,12.00
2019-05-22T22:41:24.160Z,12.00
2019-05-22T22:43:32.911Z,12.00
2019-05-22T22:45:43.165Z,12.00
2019-05-22T22:47:48.401Z,12.00
2019-05-22T22:49:52.922Z,12.00
2019-05-22T22:51:57.507Z,12.00
2019-05-22T22:54:03.025Z,12.00
2019-05-22T22:56:08.400Z,12.00
2019-05-22T22:58:17.020Z,12.00
2019-05-22T23:00:25.278Z,11.90
2019-05-22T23:02:30.653Z,11.90
2019-05-22T23:04:35.245Z,11.90
2019-05-22T23:06:39.927Z,11.90
2019-05-22T23:08:45.027Z,11.90
2019-05-22T23:10:50.231Z,11.90
2019-05-22T23:12:55.006Z,11.90
2019-05-22T23:15:00.391Z,11.90
2019-05-22T23:17:05.679Z,11.90
2019-05-22T23:19:17.123Z,11.90
2019-05-22T23:21:20.774Z,12.00
2019-05-22T23:23:23.302Z,12.00
2019-05-22T23:25:27.012Z,12.00
2019-05-22T23:27:31.510Z,12.00
2019-05-22T23:29:37.108Z,11.90
2019-05-22T23:31:41.298Z,11.90
2019-05-22T23:33:45.166Z,11.90
2019-05-22T23:35:50.152Z,11.90
2019-05-22T23:37:54.232Z,11.90
2019-05-22T23:39:58.034Z,11.90
2019-05-22T23:42:04.901Z,11.90
2019-05-22T23:44:11.662Z,11.90
2019-05-22T23:46:17.152Z,11.90
2019-05-22T23:48:23.024Z,11.90
2019-05-22T23:50:27.357Z,11.90
2019-05-22T23:52:31.156Z,11.80
2019-05-22T23:54:36.229Z,11.80
2019-05-22T23:56:39.951Z,11.90
2019-05-22T23:58:52.719Z,11.90
